Terminal Aerodrome Forecast
Issued by NWS

Home | Current Version | Previous Version | Text Only | Print | Product List | Glossary On
Versions: 1 2 3 4 5 6 7 8 9 10 11 12 13 14 15 16 17 18 19
000
FTUS46 KLOX 162357
TAFSBA
TAF
KSBA 162357Z 1700/1724 14008KT 6SM FU SKC
     FM170200 33006KT 6SM FU SKC WS010/03025KT
     FM170800 VRB03KT 6SM FU SKC
     FM172000 25010KT 6SM FU SKC=

USA.gov is the U.S. government's official web portal to all federal, state and local government web resources and services.